Time;durP1;ratioP1;P1;durP2;ratioP2;P2;SDS_P1;SDS_P2;PMS_P1;PMS_P2;Temp;Humidity;BMP_temperature;BMP_pressure;BME280_temperature;BME280_humidity;BME280_pressure;Samples;Min_cycle;Max_cycle;Signal;HPM_P1;HPM_P2
2022/11/24 00:00:05;;;;;;;13.88;6.25;;;;;;;-2.20;100.00;98983.75;5153658;27;20047;-47
2022/11/24 00:02:31;;;;;;;10.80;5.40;;;;;;;-2.69;100.00;98956.03;5153576;27;20248;-48
2022/11/24 00:04:57;;;;;;;10.25;5.85;;;;;;;-2.17;100.00;99000.06;5153743;27;20111;-48
2022/11/24 00:07:24;;;;;;;13.20;6.07;;;;;;;-2.51;100.00;98967.94;5153951;27;20483;-47
2022/11/24 00:09:51;;;;;;;15.95;7.32;;;;;;;-2.35;100.00;98990.06;5153247;27;20481;-47
2022/11/24 00:12:17;;;;;;;17.27;7.75;;;;;;;-2.08;100.00;98986.03;5153963;27;20055;-47
2022/11/24 00:14:43;;;;;;;13.85;7.15;;;;;;;-2.03;100.00;98945.66;5153368;27;20416;-46
2022/11/24 00:17:09;;;;;;;17.27;7.80;;;;;;;-2.69;100.00;98934.59;5152959;27;20093;-47
2022/11/24 00:19:36;;;;;;;16.88;9.20;;;;;;;-2.23;100.00;98989.69;5153329;27;20042;-47
2022/11/24 00:22:02;;;;;;;21.05;9.02;;;;;;;-2.29;100.00;99031.91;5153027;27;20485;-48
2022/11/24 00:24:29;;;;;;;21.40;9.52;;;;;;;-2.65;100.00;99042.94;5153209;27;20086;-47
2022/11/24 00:26:55;;;;;;;19.77;8.57;;;;;;;-2.55;100.00;99086.91;5153116;27;20114;-46
2022/11/24 00:29:21;;;;;;;22.98;9.13;;;;;;;-2.03;100.00;99098.78;5152922;27;20506;-47
2022/11/24 00:31:47;;;;;;;16.48;8.20;;;;;;;-2.03;100.00;99051.25;5152832;27;20042;-48
2022/11/24 00:34:14;;;;;;;21.90;9.82;;;;;;;-2.22;100.00;99039.63;5153383;27;20179;-48
2022/11/24 00:36:41;;;;;;;18.40;8.63;;;;;;;-2.18;100.00;99054.88;5152705;27;20172;-47
2022/11/24 00:39:11;;;;;;;20.08;9.20;;;;;;;-2.41;100.00;99056.44;5153191;27;20043;-46
2022/11/24 00:41:38;;;;;;;19.00;9.13;;;;;;;-2.15;100.00;99077.69;5152966;27;20074;-47
2022/11/24 00:44:05;;;;;;;20.25;9.10;;;;;;;-2.80;100.00;99096.72;5152621;27;20061;-47
2022/11/24 00:46:31;;;;;;;20.50;8.75;;;;;;;-2.46;100.00;99171.94;5152836;27;20051;-46
2022/11/24 00:48:59;;;;;;;19.77;9.93;;;;;;;-2.48;100.00;99171.41;5152560;27;20497;-47
2022/11/24 00:51:26;;;;;;;21.40;8.88;;;;;;;-2.25;100.00;99177.94;5152953;27;20493;-48
2022/11/24 00:53:54;;;;;;;23.17;10.90;;;;;;;-2.37;100.00;99181.00;5152530;27;20043;-48
2022/11/24 00:56:20;;;;;;;21.58;9.93;;;;;;;-2.56;100.00;99174.69;5152527;27;20119;-47
2022/11/24 00:58:47;;;;;;;29.85;9.85;;;;;;;-2.65;100.00;99187.88;5152591;27;20058;-48
2022/11/24 01:01:15;;;;;;;25.08;10.02;;;;;;;-2.20;100.00;99214.69;5152894;27;20047;-48
2022/11/24 01:03:42;;;;;;;27.50;10.40;;;;;;;-2.87;100.00;99180.19;5152421;27;20054;-47
2022/11/24 01:06:11;;;;;;;23.45;9.77;;;;;;;-2.76;100.00;99220.41;5152674;27;20046;-49
2022/11/24 01:08:38;;;;;;;23.40;11.35;;;;;;;-2.48;100.00;99248.44;5152580;27;20637;-46
2022/11/24 01:11:10;;;;;;;28.75;12.02;;;;;;;-2.25;100.00;99250.47;5152485;27;20111;-47
2022/11/24 01:13:37;;;;;;;23.10;10.57;;;;;;;-2.26;100.00;99250.75;5152589;27;20047;-48
2022/11/24 01:16:04;;;;;;;22.05;9.88;;;;;;;-2.27;100.00;99222.28;5152264;27;20043;-50
2022/11/24 01:18:30;;;;;;;28.38;10.85;;;;;;;-2.06;100.00;99212.22;5152361;27;20047;-48
2022/11/24 01:20:56;;;;;;;26.55;10.38;;;;;;;-1.94;100.00;99196.50;5152003;27;20141;-48
2022/11/24 01:23:23;;;;;;;17.90;9.32;;;;;;;-2.05;100.00;99178.88;5151735;27;20059;-47
2022/11/24 01:25:49;;;;;;;26.45;11.77;;;;;;;-2.10;100.00;99184.28;5152238;27;20051;-48
2022/11/24 01:28:15;;;;;;;28.38;11.07;;;;;;;-1.95;100.00;99184.97;5152721;27;20162;-49
2022/11/24 01:30:41;;;;;;;24.50;11.15;;;;;;;-1.75;100.00;99142.88;5152203;27;20118;-48
2022/11/24 01:33:08;;;;;;;28.50;12.38;;;;;;;-2.19;100.00;99087.41;5152399;27;20050;-51
2022/11/24 01:35:36;;;;;;;30.80;11.82;;;;;;;-2.29;100.00;99130.47;5151934;27;20052;-50
2022/11/24 01:38:02;;;;;;;23.15;11.05;;;;;;;-2.04;100.00;99143.66;5152017;27;20494;-48
2022/11/24 01:40:28;;;;;;;23.05;10.43;;;;;;;-2.34;100.00;99136.66;5152091;27;20077;-49
2022/11/24 01:42:55;;;;;;;27.48;11.30;;;;;;;-2.47;100.00;99173.00;5151698;27;20137;-47
2022/11/24 01:45:39;;;;;;;28.05;11.98;;;;;;;-2.30;100.00;99198.66;5151954;27;20498;-49
2022/11/24 01:48:12;;;;;;;27.35;11.48;;;;;;;-2.17;100.00;99204.19;5151839;27;20080;-48
2022/11/24 01:50:40;;;;;;;24.35;11.50;;;;;;;-2.23;100.00;99213.41;5152117;27;20046;-49
2022/11/24 01:53:08;;;;;;;30.67;11.05;;;;;;;-2.53;100.00;99225.13;5151988;27;20047;-47
2022/11/24 01:55:37;;;;;;;24.77;11.18;;;;;;;-2.30;100.00;99236.25;5151838;27;20106;-47
2022/11/24 01:58:06;;;;;;;24.35;9.85;;;;;;;-2.20;100.00;99230.81;5151550;27;20054;-51
2022/11/24 02:00:35;;;;;;;24.92;11.07;;;;;;;-2.12;100.00;99206.06;5151492;27;20078;-50
2022/11/24 02:03:02;;;;;;;31.90;12.48;;;;;;;-2.15;100.00;99179.75;5151743;27;20046;-50
2022/11/24 02:05:33;;;;;;;25.70;11.73;;;;;;;-1.78;100.00;99178.38;5151544;27;20536;-48
2022/11/24 02:08:01;;;;;;;27.33;11.13;;;;;;;-1.89;100.00;99140.06;5151711;27;20557;-47
2022/11/24 02:10:28;;;;;;;22.65;11.65;;;;;;;-1.79;100.00;99121.13;5151424;27;20089;-47
2022/11/24 02:12:57;;;;;;;29.55;10.77;;;;;;;-2.53;100.00;99074.81;5151695;27;20058;-47
2022/11/24 02:15:24;;;;;;;22.30;10.73;;;;;;;-2.39;100.00;99128.66;5151411;27;20137;-48
2022/11/24 02:17:50;;;;;;;26.23;11.95;;;;;;;-1.85;100.00;99148.34;5151337;27;20050;-47
2022/11/24 02:20:17;;;;;;;23.85;12.07;;;;;;;-1.85;100.00;99110.72;5151434;27;20133;-48
2022/11/24 02:22:51;;;;;;;26.55;11.95;;;;;;;-1.88;100.00;99081.75;5151117;27;20055;-48
2022/11/24 02:25:23;;;;;;;;;;;;;;;-1.75;100.00;99071.09;5152097;27;20050;-47
2022/11/24 02:27:51;;;;;;;23.25;11.02;;;;;;;-1.87;100.00;99034.97;5151092;27;19933;-47
2022/11/24 02:30:18;;;;;;;24.00;11.00;;;;;;;-1.91;100.00;99029.38;5151420;27;20054;-46
2022/11/24 02:32:44;;;;;;;22.27;10.88;;;;;;;-1.97;100.00;99062.75;5151634;27;20047;-47
2022/11/24 02:35:11;;;;;;;23.98;11.02;;;;;;;-2.52;100.00;99059.50;5154827;27;20042;-46
2022/11/24 02:37:37;;;;;;;24.25;10.70;;;;;;;-2.29;100.00;99104.41;5154834;27;20478;-46
2022/11/24 02:40:05;;;;;;;30.42;11.98;;;;;;;-2.03;100.00;99117.59;5154826;27;20532;-47
2022/11/24 02:42:35;;;;;;;28.30;11.15;;;;;;;-1.94;100.00;99113.22;5154852;27;20047;-47
2022/11/24 02:45:03;;;;;;;24.02;10.52;;;;;;;-2.40;100.00;99102.88;5154819;27;20695;-47
2022/11/24 02:47:29;;;;;;;18.98;9.70;;;;;;;-2.58;100.00;99107.03;5154601;27;20058;-47
2022/11/24 02:49:55;;;;;;;27.33;12.07;;;;;;;-2.37;100.00;99140.72;5154474;27;20587;-47
2022/11/24 02:52:21;;;;;;;22.85;10.23;;;;;;;-2.37;100.00;99166.75;5154528;27;20572;-48
2022/11/24 02:54:48;;;;;;;25.83;10.38;;;;;;;-2.24;100.00;99173.38;5154562;27;20398;-47
2022/11/24 02:57:14;;;;;;;26.23;11.73;;;;;;;-2.12;100.00;99171.16;5154692;27;20516;-48
2022/11/24 02:59:40;;;;;;;23.48;10.20;;;;;;;-2.46;100.00;99139.72;5154354;27;20047;-46
2022/11/24 03:02:09;;;;;;;24.88;11.27;;;;;;;-2.38;100.00;99165.94;5154661;27;20051;-47
2022/11/24 03:04:35;;;;;;;21.33;10.50;;;;;;;-2.37;100.00;99154.16;5154404;27;20497;-47
2022/11/24 03:07:01;;;;;;;22.35;10.40;;;;;;;-2.75;100.00;99150.38;5154601;27;20054;-48
2022/11/24 03:09:28;;;;;;;29.83;10.90;;;;;;;-2.19;100.00;99182.22;5154363;27;20073;-47
2022/11/24 03:11:54;;;;;;;27.70;11.95;;;;;;;-2.45;100.00;99149.38;5154397;27;20053;-48
2022/11/24 03:14:21;;;;;;;23.73;11.32;;;;;;;-2.54;100.00;99164.44;5154273;27;20138;-49
2022/11/24 03:16:47;;;;;;;25.45;11.60;;;;;;;-2.58;100.00;99187.56;5153898;27;20042;-47
2022/11/24 03:19:14;;;;;;;29.52;11.27;;;;;;;-2.11;100.00;99207.66;5154321;27;20053;-47
2022/11/24 03:21:40;;;;;;;26.70;11.88;;;;;;;-2.42;100.00;99181.03;5154371;27;20107;-48
2022/11/24 03:24:06;;;;;;;24.15;11.15;;;;;;;-2.20;100.00;99169.03;5154674;27;20081;-52
2022/11/24 03:26:34;;;;;;;26.70;10.98;;;;;;;-2.03;100.00;99139.91;5154135;27;20507;-50
2022/11/24 03:29:00;;;;;;;29.60;11.25;;;;;;;-2.16;100.00;99101.06;5154382;27;20057;-48
2022/11/24 03:31:26;;;;;;;25.73;11.30;;;;;;;-2.30;100.00;99113.56;5153953;27;20507;-48
2022/11/24 03:33:52;;;;;;;25.85;12.20;;;;;;;-2.28;100.00;99103.31;5153865;27;20521;-48
2022/11/24 03:36:19;;;;;;;21.45;9.20;;;;;;;-2.64;100.00;99092.06;5153913;27;20085;-49
2022/11/24 03:38:46;;;;;;;40.10;12.82;;;;;;;-2.34;100.00;99123.22;5153990;27;20461;-47
2022/11/24 03:41:12;;;;;;;27.75;11.52;;;;;;;-2.01;100.00;99116.22;5153768;27;20080;-51
2022/11/24 03:43:38;;;;;;;29.33;11.85;;;;;;;-2.34;100.00;99092.91;5153793;27;20050;-50
2022/11/24 03:46:05;;;;;;;23.80;10.55;;;;;;;-2.38;100.00;99108.78;5153473;27;20058;-48
2022/11/24 03:48:31;;;;;;;31.58;13.32;;;;;;;-2.26;100.00;99113.78;5153569;27;20074;-50
2022/11/24 03:50:59;;;;;;;28.42;11.45;;;;;;;-2.14;100.00;99111.53;5154008;27;20047;-51
2022/11/24 03:53:27;;;;;;;27.08;10.95;;;;;;;-2.51;100.00;99096.00;5153568;27;20053;-48
2022/11/24 03:55:54;;;;;;;31.55;12.43;;;;;;;-2.30;100.00;99110.03;5153770;27;20069;-47
2022/11/24 03:58:21;;;;;;;27.02;12.07;;;;;;;-2.49;100.00;99110.75;5153490;27;20564;-48
2022/11/24 04:00:48;;;;;;;33.78;12.50;;;;;;;-2.41;100.00;99128.13;5153703;27;20042;-51
2022/11/24 04:03:15;;;;;;;26.70;12.32;;;;;;;-2.37;100.00;99135.38;5153599;27;20073;-47
2022/11/24 04:05:41;;;;;;;28.83;11.05;;;;;;;-2.39;100.00;99131.34;5153388;27;20050;-50
2022/11/24 04:08:08;;;;;;;27.63;12.00;;;;;;;-2.37;100.00;99134.53;5153417;27;20050;-50
2022/11/24 04:10:37;;;;;;;23.17;12.10;;;;;;;-2.23;100.00;99130.16;5153310;27;20054;-49
2022/11/24 04:13:04;;;;;;;27.20;12.00;;;;;;;-2.58;100.00;99096.31;5153180;27;20077;-51
2022/11/24 04:15:30;;;;;;;28.02;12.73;;;;;;;-2.74;100.00;99114.41;5153153;27;20188;-51
2022/11/24 04:17:57;;;;;;;28.77;12.68;;;;;;;-2.63;100.00;99169.63;5153235;27;20138;-48
2022/11/24 04:20:24;;;;;;;31.13;13.90;;;;;;;-2.60;100.00;99181.66;5153052;27;20085;-50
2022/11/24 04:22:50;;;;;;;31.38;12.40;;;;;;;-2.58;100.00;99198.31;5153209;27;20043;-49
2022/11/24 04:25:17;;;;;;;32.90;12.52;;;;;;;-2.70;100.00;99198.66;5153060;27;20046;-47
2022/11/24 04:27:44;;;;;;;27.60;12.88;;;;;;;-2.66;100.00;99207.75;5153243;27;20053;-48
2022/11/24 04:30:11;;;;;;;39.45;21.88;;;;;;;-2.88;100.00;99208.09;5153024;27;20426;-48
2022/11/24 04:32:37;;;;;;;34.97;15.13;;;;;;;-2.84;100.00;99211.84;5153065;27;20138;-50
2022/11/24 04:35:04;;;;;;;37.25;13.52;;;;;;;-2.90;100.00;99218.34;5152925;27;20130;-46
2022/11/24 04:37:30;;;;;;;26.70;12.50;;;;;;;-3.00;100.00;99223.75;5152812;27;20047;-47
2022/11/24 04:39:56;;;;;;;32.90;13.13;;;;;;;-2.78;100.00;99236.78;5152837;27;20071;-48
2022/11/24 04:42:22;;;;;;;29.85;13.10;;;;;;;-2.58;100.00;99251.97;5152567;27;20133;-47
2022/11/24 04:44:49;;;;;;;33.17;13.25;;;;;;;-2.49;100.00;99236.91;5152819;27;20086;-48
2022/11/24 04:47:22;;;;;;;30.67;13.13;;;;;;;-2.47;100.00;99234.72;5152569;27;20047;-46
2022/11/24 04:49:48;;;;;;;34.03;13.82;;;;;;;-2.80;100.00;99220.13;5152895;27;20053;-47
2022/11/24 04:52:14;;;;;;;29.85;12.68;;;;;;;-2.21;100.00;99219.28;5152458;27;20081;-46
2022/11/24 04:54:41;;;;;;;38.22;13.93;;;;;;;-2.19;100.00;99184.91;5152840;27;20454;-47
2022/11/24 04:57:08;;;;;;;34.20;13.60;;;;;;;-2.38;100.00;99174.00;5151183;27;20056;-49
2022/11/24 04:59:35;;;;;;;26.83;12.25;;;;;;;-2.65;100.00;99165.59;5152746;27;20078;-48
2022/11/24 05:02:02;;;;;;;26.27;12.32;;;;;;;-2.70;100.00;99185.22;5152230;27;20075;-50
2022/11/24 05:04:28;;;;;;;27.35;12.50;;;;;;;-2.73;100.00;99193.00;5152365;27;20046;-48
2022/11/24 05:06:54;;;;;;;28.27;12.95;;;;;;;-2.92;100.00;99192.84;5152129;27;20433;-51
2022/11/24 05:09:21;;;;;;;29.73;13.10;;;;;;;-2.45;100.00;99218.38;5152010;27;20141;-48
2022/11/24 05:11:47;;;;;;;28.02;12.20;;;;;;;-2.74;100.00;99211.00;5152481;27;20390;-47
2022/11/24 05:14:13;;;;;;;30.13;12.85;;;;;;;-2.32;100.00;99233.06;5152465;27;20527;-47
2022/11/24 05:16:39;;;;;;;38.28;14.30;;;;;;;-2.63;100.00;99212.56;5152441;27;20077;-50
2022/11/24 05:19:12;;;;;;;32.85;13.75;;;;;;;-2.50;100.00;99199.59;5211367;27;20142;-46
2022/11/24 05:21:38;;;;;;;31.85;13.30;;;;;;;-2.95;100.00;99169.25;5189604;27;20492;-49
2022/11/24 05:24:05;;;;;;;30.55;12.65;;;;;;;-2.74;100.00;99199.47;5189589;27;20068;-47
2022/11/24 05:26:32;;;;;;;29.20;12.38;;;;;;;-2.52;100.00;99216.00;5189684;27;20487;-48
2022/11/24 05:28:58;;;;;;;28.45;12.77;;;;;;;-2.66;100.00;99205.06;5189613;27;20186;-50
2022/11/24 05:31:24;;;;;;;25.23;11.25;;;;;;;-2.63;100.00;99209.09;5189832;27;20088;-52
2022/11/24 05:33:51;;;;;;;29.42;13.15;;;;;;;-2.62;100.00;99218.72;5189769;27;20118;-54
2022/11/24 05:39:02;;;;;;;29.35;13.93;;;;;;;-2.31;100.00;99231.97;5189631;27;20056;-55
2022/11/24 05:41:29;;;;;;;30.00;13.10;;;;;;;-2.46;100.00;99214.09;5189478;27;20077;-53
2022/11/24 05:43:55;;;;;;;31.02;13.23;;;;;;;-2.52;100.00;99207.94;5189469;27;20088;-54
2022/11/24 05:46:21;;;;;;;25.63;12.43;;;;;;;-2.47;100.00;99215.94;5189312;27;20536;-54
2022/11/24 05:48:48;;;;;;;27.10;12.30;;;;;;;-2.55;100.00;99213.06;5189430;27;20105;-55
2022/11/24 05:51:14;;;;;;;26.88;12.70;;;;;;;-2.33;100.00;99210.78;5189295;27;20136;-50
2022/11/24 05:53:41;;;;;;;28.27;13.23;;;;;;;-2.49;100.00;99202.00;5189222;27;20133;-58
2022/11/24 05:56:08;;;;;;;29.90;13.10;;;;;;;-2.44;100.00;99195.81;5189187;27;20046;-56
2022/11/24 05:58:34;;;;;;;36.30;13.90;;;;;;;-3.01;100.00;99191.81;5189328;27;20236;-55
2022/11/24 06:01:04;;;;;;;27.38;12.43;;;;;;;-3.04;100.00;99221.84;5189154;27;20412;-57
2022/11/24 06:03:30;;;;;;;30.88;13.82;;;;;;;-2.50;100.00;99255.97;5189439;27;20046;-54
2022/11/24 06:05:57;;;;;;;31.55;13.40;;;;;;;-2.43;100.00;99248.44;5189216;27;20101;-54
2022/11/24 06:08:23;;;;;;;29.20;13.55;;;;;;;-2.54;100.00;99236.94;5189235;27;20049;-55
2022/11/24 06:10:50;;;;;;;27.60;13.02;;;;;;;-2.54;100.00;99226.19;5189012;27;20163;-54
2022/11/24 06:13:16;;;;;;;30.73;13.50;;;;;;;-2.53;100.00;99227.00;5189013;27;20161;-54
2022/11/24 06:15:42;;;;;;;33.53;13.63;;;;;;;-2.53;100.00;99235.88;5188877;27;20132;-55
2022/11/24 06:18:09;;;;;;;24.60;11.27;;;;;;;-2.71;100.00;99234.59;5188831;27;20045;-59
2022/11/24 06:20:35;;;;;;;29.00;12.40;;;;;;;-2.73;100.00;99239.44;5189049;27;20145;-56
2022/11/24 06:23:01;;;;;;;31.17;13.77;;;;;;;-2.61;100.00;99253.34;5188874;27;20099;-56
2022/11/24 06:25:28;;;;;;;30.23;12.63;;;;;;;-2.62;100.00;99256.31;5188767;27;20136;-56
2022/11/24 06:27:55;;;;;;;27.58;13.40;;;;;;;-2.68;100.00;99254.72;5188852;27;20585;-56
2022/11/24 06:30:22;;;;;;;26.98;12.20;;;;;;;-2.87;100.00;99249.16;5176093;27;20132;-58
2022/11/24 06:32:48;;;;;;;34.47;12.95;;;;;;;-2.51;100.00;99260.53;5174514;27;20508;-56
2022/11/24 06:35:14;;;;;;;30.50;13.73;;;;;;;-2.55;100.00;99258.69;5174967;27;20101;-55
2022/11/24 06:37:41;;;;;;;30.40;13.07;;;;;;;-2.72;100.00;99251.78;5174656;27;20357;-54
2022/11/24 06:40:08;;;;;;;26.92;11.73;;;;;;;-2.55;100.00;99259.50;5174985;27;20073;-56
2022/11/24 06:42:34;;;;;;;27.60;12.50;;;;;;;-2.67;100.00;99253.63;5174450;27;20500;-55
2022/11/24 06:45:01;;;;;;;25.98;12.05;;;;;;;-2.55;100.00;99278.28;5174772;27;20046;-54
2022/11/24 06:47:28;;;;;;;25.42;11.95;;;;;;;-2.39;100.00;99276.31;5174618;27;20173;-56
2022/11/24 06:49:54;;;;;;;27.35;14.15;;;;;;;-2.40;100.00;99262.09;5174643;27;20571;-56
2022/11/24 06:52:20;;;;;;;30.85;13.95;;;;;;;-2.67;100.00;99250.94;5174832;27;20049;-56
2022/11/24 06:54:47;;;;;;;31.73;14.63;;;;;;;-2.56;100.00;99259.78;5174602;27;20064;-55
2022/11/24 06:57:13;;;;;;;28.08;13.30;;;;;;;-2.54;100.00;99261.09;5174248;27;20102;-56
2022/11/24 06:59:39;;;;;;;29.60;14.65;;;;;;;-2.80;100.00;99243.50;5174147;27;20646;-56
2022/11/24 07:02:08;;;;;;;34.30;13.95;;;;;;;-2.74;100.00;99269.22;5174268;27;20085;-58
2022/11/24 07:04:34;;;;;;;28.73;12.82;;;;;;;-2.63;100.00;99282.34;5174119;27;20150;-56
2022/11/24 07:07:02;;;;;;;24.75;13.02;;;;;;;-2.54;100.00;99281.75;5174281;27;20050;-54
2022/11/24 07:09:28;;;;;;;29.55;14.23;;;;;;;-2.42;100.00;99277.69;5173946;27;20060;-55
2022/11/24 07:11:55;;;;;;;30.05;12.77;;;;;;;-2.28;100.00;99258.28;5173852;27;20054;-57
2022/11/24 07:14:21;;;;;;;29.88;12.32;;;;;;;-2.49;100.00;99244.16;5173915;27;20042;-59
2022/11/24 07:16:48;;;;;;;31.40;13.18;;;;;;;-2.73;100.00;99234.09;5173899;27;20052;-56
2022/11/24 07:19:15;;;;;;;24.08;12.07;;;;;;;-2.76;100.00;99244.56;5173505;27;20057;-57
2022/11/24 07:21:42;;;;;;;29.75;12.30;;;;;;;-2.66;100.00;99256.06;5173744;27;20178;-59
2022/11/24 07:24:08;;;;;;;28.05;13.00;;;;;;;-2.39;100.00;99268.28;5173891;27;20053;-58
2022/11/24 07:26:36;;;;;;;32.78;14.70;;;;;;;-2.38;100.00;99253.75;5173825;27;20571;-55
2022/11/24 07:29:03;;;;;;;29.77;14.27;;;;;;;-2.31;100.00;99240.03;5173842;27;20058;-57
2022/11/24 07:31:29;;;;;;;33.13;13.25;;;;;;;-2.48;100.00;99225.09;5173831;27;20053;-59
2022/11/24 07:33:55;;;;;;;28.33;12.68;;;;;;;-2.49;100.00;99226.16;5173938;27;20087;-58
2022/11/24 07:36:23;;;;;;;33.67;13.15;;;;;;;-2.61;100.00;99223.00;5173321;27;20103;-54
2022/11/24 07:38:49;;;;;;;26.70;13.63;;;;;;;-2.48;100.00;99233.13;5172986;27;20133;-53
2022/11/24 07:41:18;;;;;;;31.35;13.38;;;;;;;-2.49;100.00;99234.22;5172297;27;20569;-51
2022/11/24 07:43:45;;;;;;;29.13;13.25;;;;;;;-2.16;100.00;99242.63;5173312;27;20555;-51
2022/11/24 07:46:13;;;;;;;32.80;14.48;;;;;;;-2.27;100.00;99225.75;5173544;27;20488;-53
2022/11/24 07:48:40;;;;;;;27.30;12.63;;;;;;;-2.17;100.00;99214.13;5173618;27;20121;-53
2022/11/24 07:51:07;;;;;;;30.13;12.93;;;;;;;-1.86;100.00;99219.31;5173670;27;20072;-53
2022/11/24 07:53:35;;;;;;;31.38;13.25;;;;;;;-2.01;100.00;99196.84;5173386;27;20046;-48
2022/11/24 07:56:02;;;;;;;28.98;13.38;;;;;;;-2.15;100.00;99166.34;5173328;27;20050;-49
2022/11/24 07:58:30;;;;;;;33.70;13.75;;;;;;;-1.87;100.00;99170.09;5172977;27;20057;-52
2022/11/24 08:00:56;;;;;;;27.00;13.90;;;;;;;-1.63;100.00;99155.91;5173539;27;20053;-51
2022/11/24 08:03:24;;;;;;;28.77;13.27;;;;;;;-1.46;100.00;99115.97;5173095;27;20523;-50
2022/11/24 08:05:53;;;;;;;31.40;14.65;;;;;;;-1.60;100.00;99072.00;5173243;27;20397;-52
2022/11/24 08:08:20;;;;;;;25.98;12.52;;;;;;;-1.61;100.00;99025.50;5173160;27;20406;-49
2022/11/24 08:10:47;;;;;;;25.50;13.13;;;;;;;-1.51;100.00;98995.81;5173169;27;20151;-49
2022/11/24 08:13:13;;;;;;;35.42;13.98;;;;;;;-1.77;100.00;98938.09;5172574;27;20193;-48
2022/11/24 08:15:39;;;;;;;31.85;13.77;;;;;;;-1.58;100.00;98925.47;5173447;27;20482;-53
2022/11/24 08:18:06;;;;;;;32.75;14.60;;;;;;;-1.30;100.00;98896.03;5173095;27;20658;-53
2022/11/24 08:20:32;;;;;;;28.00;13.57;;;;;;;-1.45;100.00;98859.41;5173220;27;20042;-52
2022/11/24 08:22:59;;;;;;;34.78;11.95;;;;;;;-1.50;100.00;98846.88;5172693;27;20472;-50
2022/11/24 08:25:30;;;;;;;32.50;14.48;;;;;;;-1.58;100.00;98871.72;5172637;27;20042;-53
2022/11/24 08:27:57;;;;;;;29.77;13.95;;;;;;;-1.67;100.00;98914.59;5172770;27;20455;-50
2022/11/24 08:30:24;;;;;;;35.50;14.90;;;;;;;-1.35;100.00;98931.06;5172730;27;20050;-56
2022/11/24 08:32:50;;;;;;;28.63;13.82;;;;;;;-1.59;100.00;98918.50;5172710;27;20437;-51
2022/11/24 08:35:16;;;;;;;28.17;13.75;;;;;;;-1.54;100.00;98915.72;5172705;27;20042;-52
2022/11/24 08:37:43;;;;;;;32.47;14.77;;;;;;;-1.77;100.00;98900.47;5172772;27;20564;-52
2022/11/24 08:40:11;;;;;;;33.08;15.73;;;;;;;-1.29;100.00;98936.09;5172950;27;20575;-55
2022/11/24 08:42:37;;;;;;;34.35;15.00;;;;;;;-1.46;100.00;98882.81;5172625;27;20046;-50
2022/11/24 08:45:05;;;;;;;36.97;14.77;;;;;;;-1.17;100.00;98856.81;5172882;27;20677;-51
2022/11/24 08:47:31;;;;;;;33.30;14.13;;;;;;;-1.66;100.00;98813.25;5172520;27;20046;-50
2022/11/24 08:49:58;;;;;;;32.50;15.50;;;;;;;-1.52;100.00;98832.13;5172909;27;20042;-54
2022/11/24 08:52:24;;;;;;;28.20;13.68;;;;;;;-2.19;100.00;98816.97;5172306;27;20176;-53
2022/11/24 08:54:50;;;;;;;30.52;12.57;;;;;;;-1.95;100.00;98886.75;5172796;27;20046;-55
2022/11/24 08:57:17;;;;;;;29.95;14.40;;;;;;;-1.44;100.00;98939.78;5172042;27;20081;-52
2022/11/24 08:59:44;;;;;;;34.33;14.43;;;;;;;-1.12;100.00;98937.44;5172368;27;20461;-53
2022/11/24 09:02:12;;;;;;;35.75;15.70;;;;;;;-1.16;100.00;98864.59;5172105;27;20053;-56
2022/11/24 09:04:39;;;;;;;28.90;12.32;;;;;;;0.47;100.00;98911.78;5172309;27;21296;-53
2022/11/24 09:07:05;;;;;;;30.33;14.82;;;;;;;-0.19;100.00;98633.00;5172103;27;20050;-55
2022/11/24 09:09:31;;;;;;;35.17;14.75;;;;;;;-0.95;100.00;98474.88;5172562;27;20457;-56
2022/11/24 09:11:58;;;;;;;30.30;14.20;;;;;;;-0.81;100.00;98475.63;5172385;27;20050;-52
2022/11/24 09:14:24;;;;;;;33.13;13.65;;;;;;;-1.23;100.00;98458.06;5171915;27;20056;-51
2022/11/24 09:16:50;;;;;;;29.63;14.10;;;;;;;-1.22;100.00;98475.78;5172320;27;20129;-54
2022/11/24 09:19:17;;;;;;;33.05;14.77;;;;;;;-1.01;100.00;98513.78;5171812;27;20504;-52
2022/11/24 09:21:44;;;;;;;35.80;14.68;;;;;;;-1.20;100.00;98460.94;5172148;27;20050;-52
2022/11/24 09:24:10;;;;;;;33.15;15.27;;;;;;;-1.08;100.00;98467.66;5171899;27;20050;-51
2022/11/24 09:26:38;;;;;;;31.25;14.35;;;;;;;-1.23;100.00;98445.41;5171954;27;20118;-55
2022/11/24 09:29:06;;;;;;;32.10;14.25;;;;;;;-1.27;100.00;98440.94;5171712;27;20050;-52
2022/11/24 09:31:36;;;;;;;28.73;12.63;;;;;;;-1.38;100.00;98435.00;5171790;27;20520;-53
2022/11/24 09:34:03;;;;;;;30.25;13.50;;;;;;;-1.58;100.00;98494.59;5171638;27;20056;-55
2022/11/24 09:36:31;;;;;;;30.38;14.82;;;;;;;-1.10;100.00;98519.09;5172035;27;20607;-53
2022/11/24 09:38:57;;;;;;;31.30;15.27;;;;;;;-1.15;100.00;98472.69;5172137;27;20053;-56
2022/11/24 09:41:39;;;;;;;30.08;15.02;;;;;;;-1.16;100.00;98523.00;5171728;27;20053;-54
2022/11/24 09:44:36;;;;;;;30.83;13.75;;;;;;;-1.21;100.00;98464.72;5171764;27;20145;-54
2022/11/24 09:47:13;;;;;;;26.50;14.00;;;;;;;-1.30;100.00;98473.81;5164430;27;20133;-53
2022/11/24 09:49:46;;;;;;;29.00;13.57;;;;;;;-1.76;100.00;98482.88;5171511;27;20205;-54
2022/11/24 09:52:17;;;;;;;32.30;13.82;;;;;;;-1.38;100.00;98536.38;5171597;27;20081;-56
2022/11/24 09:54:49;;;;;;;31.38;13.88;;;;;;;-0.98;100.00;98526.63;5171441;27;20077;-53
2022/11/24 09:57:18;;;;;;;32.47;13.85;;;;;;;-1.16;100.00;98522.19;5171304;27;20140;-56
2022/11/24 09:59:44;;;;;;;30.08;14.75;;;;;;;-1.30;100.00;98492.63;5171330;27;20145;-52
2022/11/24 10:02:12;;;;;;;34.60;14.65;;;;;;;-1.01;100.00;98492.25;5171497;27;20046;-55
2022/11/24 10:04:41;;;;;;;31.50;12.77;;;;;;;-1.33;100.00;98472.53;5172729;27;20129;-54
2022/11/24 10:07:18;;;;;;;30.00;12.73;;;;;;;-0.88;100.00;98466.38;5175019;27;20056;-52
2022/11/24 10:09:55;;;;;;;34.00;14.60;;;;;;;-1.17;100.00;98450.66;5174988;27;20459;-55
2022/11/24 10:12:36;;;;;;;29.52;13.90;;;;;;;-1.15;100.00;98448.47;5174823;27;20481;-53
2022/11/24 10:15:24;;;;;;;32.78;12.60;;;;;;;-1.35;100.00;98469.34;5175142;27;20050;-53
2022/11/24 10:18:23;;;;;;;27.75;13.20;;;;;;;-1.34;100.00;98499.72;5174542;27;20085;-54
2022/11/24 10:20:57;;;;;;;30.88;12.48;;;;;;;-1.31;100.00;98523.31;5165897;27;20046;-53
2022/11/24 10:23:40;;;;;;;31.42;13.10;;;;;;;-1.51;100.00;98556.81;5174909;27;20801;-52
2022/11/24 10:26:15;;;;;;;30.20;14.23;;;;;;;-1.45;100.00;98571.75;5174621;27;20046;-56
2022/11/24 10:28:48;;;;;;;32.38;14.40;;;;;;;-1.26;100.00;98563.56;5174785;27;20500;-53
2022/11/24 10:31:23;;;;;;;32.47;14.05;;;;;;;-1.11;100.00;98544.38;5174739;27;20468;-55
2022/11/24 10:33:49;;;;;;;29.85;13.70;;;;;;;-1.04;100.00;98528.63;5174547;27;20094;-52
2022/11/24 10:36:21;;;;;;;34.53;14.77;;;;;;;-0.90;100.00;98533.16;5174485;27;20046;-52
2022/11/24 10:38:56;;;;;;;34.88;13.52;;;;;;;-1.25;100.00;98471.81;5174992;27;21178;-52
2022/11/24 10:41:27;;;;;;;31.85;15.02;;;;;;;-1.12;100.00;98526.66;5174473;27;20046;-56
2022/11/24 10:43:57;;;;;;;37.72;15.68;;;;;;;-1.48;100.00;98534.69;5174446;27;20062;-51
2022/11/24 10:46:25;;;;;;;36.15;16.52;;;;;;;-1.60;100.00;98556.72;5174584;27;20050;-51
2022/11/24 10:48:56;;;;;;;39.67;17.30;;;;;;;-1.65;100.00;98645.50;5174186;27;20053;-52
2022/11/24 10:51:44;;;;;;;36.20;15.93;;;;;;;-1.67;100.00;98710.31;5174417;27;20419;-53
2022/11/24 10:54:16;;;;;;;34.22;15.40;;;;;;;-2.19;100.00;98760.56;5174026;27;20128;-56
2022/11/24 10:56:43;;;;;;;37.92;17.13;;;;;;;-1.59;100.00;98901.59;5174189;27;20049;-51
2022/11/24 10:59:38;;;;;;;42.80;17.60;;;;;;;-1.60;100.00;98913.41;5173969;27;20425;-51
2022/11/24 11:02:30;;;;;;;40.25;17.25;;;;;;;-1.99;100.00;98917.16;5113839;27;20621;-51
2022/11/24 11:04:57;;;;;;;41.13;19.25;;;;;;;-1.61;100.00;98962.88;5174264;27;20042;-57
2022/11/24 11:07:25;;;;;;;41.67;17.95;;;;;;;-1.69;100.00;98962.44;5173808;27;20133;-55
2022/11/24 11:10:19;;;;;;;42.70;17.65;;;;;;;-1.74;100.00;98975.94;5174258;27;20100;-51
2022/11/24 11:12:46;;;;;;;40.67;17.48;;;;;;;-1.76;100.00;98977.34;5173998;27;20052;-53
2022/11/24 11:15:24;;;;;;;41.08;18.13;;;;;;;-1.27;100.00;98998.44;5174087;27;20157;-53